Time;durP1;ratioP1;P1;durP2;ratioP2;P2;SDS_P1;SDS_P2;PMS_P1;PMS_P2;Temp;Humidity;BMP_temperature;BMP_pressure;BME280_temperature;BME280_humidity;BME280_pressure;Samples;Min_cycle;Max_cycle;Signal;HPM_P1;HPM_P2
2021/06/03 00:08:29;;;;;;;;;;;;;;;;;;;;;
2021/06/03 00:28:41;;;;;;;;;;;;;;;;;;;;;
2021/06/03 00:34:28;;;;;;;;;;;;;;;;;;;;;
2021/06/03 00:37:37;;;;;;;;;19.00;16.00;;;;;21.51;56.46;101387.53;6248700;22;76129;-95
2021/06/03 00:40:43;;;;;;;;;;;;;;;;;;;;;
2021/06/03 00:51:09;;;;;;;;;;;;;;;;;;;;;
2021/06/03 01:48:26;;;;;;;;;;;;;;;;;;;;;
2021/06/03 08:35:15;;;;;;;;;;;;;;;;;;;;;
2021/06/03 08:37:46;;;;;;;;;16.25;14.25;;;;;25.59;49.11;101674.69;5048764;28;71066;-90
2021/06/03 08:40:25;;;;;;;;;16.25;15.25;;;;;25.66;48.32;101676.81;5041347;28;45521;-90
2021/06/03 08:42:52;;;;;;;;;14.67;14.00;;;;;25.71;47.97;101679.94;5031876;28;45264;-91
2021/06/03 08:45:18;;;;;;;;;12.67;11.33;;;;;25.80;47.40;101676.47;5071838;27;49210;-90
2021/06/03 08:47:51;;;;;;;;;13.33;13.00;;;;;25.93;47.49;101686.06;5062585;27;45510;-90
2021/06/03 08:50:17;;;;;;;;;15.00;15.00;;;;;26.00;47.20;101673.88;5029237;28;45337;-90
2021/06/03 08:52:46;;;;;;;;;11.00;10.67;;;;;26.09;46.54;101678.41;5035941;28;45492;-91
2021/06/03 08:58:04;;;;;;;;;15.00;15.00;;;;;26.23;46.44;101673.66;5050682;28;45338;-90
2021/06/03 12:25:56;;;;;;;;;;;;;;;;;;;;;
2021/06/03 12:29:11;;;;;;;;;13.25;12.75;;;;;46.83;15.37;101619.84;4919295;28;72156;-96
2021/06/03 12:32:17;;;;;;;;;;;;;;;;;;;;;
2021/06/03 12:50:54;;;;;;;;;;;;;;;;;;;;;
2021/06/03 13:25:08;;;;;;;;;;;;;;;;;;;;;
2021/06/03 13:28:25;;;;;;;;;;;;;;;;;;;;;
2021/06/03 13:49:08;;;;;;;;;10.00;10.00;;;;;39.14;20.76;101547.09;4898244;26;44882;-96
2021/06/03 14:13:29;;;;;;;;;7.00;7.00;;;;;34.25;25.70;101551.63;4883569;29;45997;-96
2021/06/03 14:16:48;;;;;;;;;;;;;;;;;;;;;
2021/06/03 14:19:40;;;;;;;;;;;;;;;;;;;;;
2021/06/03 14:22:22;;;;;;;;;9.67;9.00;;;;;33.57;26.32;101538.44;4839380;29;67802;-96
2021/06/03 14:46:08;;;;;;;;;;;;;;;;;;;;;
2021/06/03 14:48:44;;;;;;;;;10.33;10.33;;;;;32.57;28.24;101520.66;4837114;29;45572;-96
2021/06/03 14:51:34;;;;;;;;;11.00;10.00;;;;;32.36;28.68;101518.63;4801494;29;44701;-96
2021/06/03 14:54:22;;;;;;;;;8.67;8.67;;;;;32.19;28.61;101515.22;4801774;29;44882;-96
2021/06/03 14:56:50;;;;;;;;;8.00;8.00;;;;;32.06;28.91;101526.63;4818432;29;45722;-96
2021/06/03 14:59:22;;;;;;;;;13.33;10.00;;;;;31.93;29.52;101514.59;4840825;29;47070;-96
2021/06/03 15:01:55;;;;;;;;;13.00;9.00;;;;;31.89;29.50;101513.28;4822523;29;44833;-96
2021/06/03 15:04:33;;;;;;;;;9.67;8.67;;;;;31.81;30.03;101510.59;4822608;29;44883;-96
2021/06/03 15:06:58;;;;;;;;;11.00;10.75;;;;;31.66;29.52;101522.13;4829654;29;44905;-96
2021/06/03 15:10:05;;;;;;;;;;;;;;;;;;;;;
2021/06/03 15:12:58;;;;;;;;;;;;;;;;;;;;;
2021/06/03 15:15:39;;;;;;;;;;;;;;;;;;;;;
2021/06/03 15:18:11;;;;;;;;;9.00;8.75;;;;;30.77;30.88;101501.59;4931125;28;63470;-96
2021/06/03 15:21:05;;;;;;;;;9.00;8.50;;;;;30.73;30.98;101508.34;4933554;28;47171;-96
2021/06/03 15:24:14;;;;;;;;;13.50;10.75;;;;;30.69;31.10;101497.09;4859606;29;45393;-96
2021/06/03 15:27:26;;;;;;;;;;;;;;;;;;;;;
2021/06/03 15:30:59;;;;;;;;;;;;;;;;;;;;;
2021/06/03 15:36:16;;;;;;;;;11.33;9.67;;;;;30.77;31.60;101498.91;5004311;23;46870;-96
2021/06/03 15:38:52;;;;;;;;;9.00;9.00;;;;;30.84;31.31;101493.69;4870913;29;44742;-95
2021/06/03 15:41:20;;;;;;;;;12.33;11.67;;;;;30.85;31.27;101477.41;4865134;29;45431;-96
2021/06/03 15:43:53;;;;;;;;;11.00;11.00;;;;;30.94;31.52;101472.84;4869655;29;46723;-96
2021/06/03 15:46:37;;;;;;;;;;;;;;;;;;;;;
2021/06/03 15:49:12;;;;;;;;;11.67;11.00;;;;;30.99;31.27;101456.19;4884616;29;69165;-96
2021/06/03 15:52:12;;;;;;;;;8.33;7.67;;;;;30.96;32.25;101461.94;4866650;29;45067;-96
2021/06/03 15:54:51;;;;;;;;;8.33;8.33;;;;;30.90;31.23;101455.41;4873354;29;46960;-96
2021/06/03 15:57:30;;;;;;;;;9.00;9.00;;;;;30.82;31.67;101450.88;4887443;29;44912;-96
2021/06/03 15:59:55;;;;;;;;;7.33;7.00;;;;;30.73;31.58;101446.56;4869324;29;45004;-96
2021/06/03 16:02:44;;;;;;;;;9.67;9.67;;;;;30.64;31.86;101443.84;4867006;29;44952;-96
2021/06/03 16:05:31;;;;;;;;;10.33;10.33;;;;;30.60;32.17;101447.91;4871680;29;47128;-96
2021/06/03 16:08:34;;;;;;;;;9.33;9.00;;;;;30.49;31.92;101446.41;4859704;29;45304;-96
2021/06/03 16:33:08;;;;;;;;;10.33;8.67;;;;;29.72;32.39;101442.22;4794961;29;44876;-96
2021/06/03 16:36:28;;;;;;;;;9.67;9.67;;;;;29.54;33.09;101439.66;4816245;29;44863;-96
2021/06/03 16:38:55;;;;;;;;;12.33;9.00;;;;;29.40;33.21;101433.91;4786502;29;45035;-96
2021/06/03 16:41:26;;;;;;;;;10.67;9.00;;;;;29.31;33.55;101437.56;4794995;29;45783;-96
2021/06/03 16:44:06;;;;;;;;;;;;;;;;;;;;;
2021/06/03 16:46:38;;;;;;;;;11.33;9.00;;;;;29.02;33.75;101439.63;4809750;29;67799;-96
2021/06/03 16:49:31;;;;;;;;;;;;;;;;;;;;;
2021/06/03 16:52:42;;;;;;;;;;;;;;;;;;;;;
2021/06/03 16:56:35;;;;;;;;;;;;;;;;;;;;;
2021/06/03 17:29:54;;;;;;;;;11.67;11.67;;;;;27.23;41.65;101544.59;4923221;28;45578;-96
2021/06/03 17:32:34;;;;;;;;;12.67;11.33;;;;;26.97;41.88;101537.25;4918325;28;45243;-96
2021/06/03 17:45:29;;;;;;;;;10.00;9.67;;;;;26.51;43.38;101540.47;4798026;29;44912;-96
2021/06/03 17:48:35;;;;;;;;;9.00;8.00;;;;;26.41;43.71;101552.00;4740860;30;44883;-96
2021/06/03 17:52:01;;;;;;;;;8.67;7.67;;;;;26.28;44.15;101556.75;4748240;30;45389;-96
2021/06/03 17:55:27;;;;;;;;;;;;;;;;;;;;;
2021/06/03 18:39:57;;;;;;;;;;;;;;;;;;;;;
2021/06/03 18:42:59;;;;;;;;;6.33;6.33;;;;;25.83;46.22;101612.22;4917349;28;67753;-96
2021/06/03 18:46:28;;;;;;;;;;;;;;;;;;;;;
2021/06/03 18:49:32;;;;;;;;;;;;;;;;;;;;;
2021/06/03 18:52:05;;;;;;;;;9.00;8.00;;;;;25.58;46.96;101622.38;4831195;29;71316;-96
2021/06/03 18:54:42;;;;;;;;;;;;;;;;;;;;;
2021/06/03 18:57:27;;;;;;;;;;;;;;;;;;;;;
2021/06/03 18:59:56;;;;;;;;;8.00;6.67;;;;;25.20;47.57;101629.13;4831767;29;74264;-96
2021/06/03 19:02:31;;;;;;;;;6.67;6.67;;;;;25.06;47.56;101630.28;4828928;29;44922;-96
2021/06/03 19:05:07;;;;;;;;;6.33;5.00;;;;;24.90;47.62;101638.72;4828029;29;44862;-96
2021/06/03 19:07:33;;;;;;;;;6.33;6.33;;;;;24.77;48.11;101631.72;4828265;29;44861;-96
2021/06/03 19:10:15;;;;;;;;;6.33;5.00;;;;;24.66;48.19;101640.59;4828192;29;46949;-96
2021/06/03 19:12:45;;;;;;;;;7.00;5.33;;;;;24.50;48.17;101630.38;4826058;29;44998;-96
2021/06/03 19:15:27;;;;;;;;;7.67;6.33;;;;;24.37;48.46;101624.34;4811912;29;44825;-96
2021/06/03 19:18:06;;;;;;;;;8.33;8.00;;;;;24.25;48.59;101628.88;4811155;29;44910;-96
2021/06/03 19:20:36;;;;;;;;;5.00;4.00;;;;;24.11;48.94;101632.63;4836233;29;45280;-96
2021/06/03 19:23:09;;;;;;;;;6.67;5.67;;;;;24.01;48.77;101632.47;4827978;29;45395;-96
2021/06/03 19:25:45;;;;;;;;;;;;;;;;;;;;;
2021/06/03 19:28:14;;;;;;;;;5.00;5.00;;;;;23.95;48.66;101640.94;4857272;29;63922;-96
2021/06/03 19:30:50;;;;;;;;;;;;;;;;;;;;;
2021/06/03 19:33:21;;;;;;;;;7.00;7.00;;;;;23.77;49.06;101630.78;4904074;28;73573;-96
2021/06/03 19:36:00;;;;;;;;;;;;;;;;;;;;;
2021/06/03 19:38:35;;;;;;;;;5.33;5.33;;;;;23.67;48.96;101635.13;4863569;29;44991;-96
2021/06/03 19:41:01;;;;;;;;;7.67;4.00;;;;;23.61;49.92;101639.94;4866812;29;46898;-96
2021/06/03 19:43:52;;;;;;;;;7.00;5.33;;;;;23.56;49.86;101639.47;4867069;29;45320;-93
2021/06/03 19:46:18;;;;;;;;;4.67;4.67;;;;;23.51;49.52;101630.16;4861726;29;44972;-95
2021/06/03 19:48:44;;;;;;;;;3.00;3.00;;;;;23.44;49.40;101632.44;4871088;29;45351;-96
2021/06/03 19:51:10;;;;;;;;;5.00;4.00;;;;;23.37;49.66;101641.84;4863874;29;46257;-95
2021/06/03 19:53:36;;;;;;;;;5.00;2.67;;;;;23.28;50.33;101643.38;4874385;29;45479;-96
2021/06/03 19:56:01;;;;;;;;;4.33;3.00;;;;;23.21;50.29;101645.63;4853971;29;45120;-96
2021/06/03 19:58:27;;;;;;;;;3.67;3.67;;;;;23.15;49.96;101640.78;4878551;29;44855;-95
2021/06/03 20:00:56;;;;;;;;;2.00;2.00;;;;;23.05;50.29;101641.47;4881663;29;47189;-96
2021/06/03 20:03:22;;;;;;;;;4.00;3.00;;;;;23.00;50.37;101638.31;4884523;29;45504;-96
2021/06/03 20:05:49;;;;;;;;;4.00;3.00;;;;;22.93;50.61;101639.75;4865560;29;45758;-96
2021/06/03 20:08:14;;;;;;;;;2.67;2.67;;;;;22.90;50.76;101643.47;4856873;29;45317;-96
2021/06/03 20:10:44;;;;;;;;;3.00;3.00;;;;;22.79;50.87;101631.03;4902942;28;47326;-96
2021/06/03 20:13:11;;;;;;;;;3.33;2.00;;;;;22.68;51.77;101647.72;4903694;28;45481;-96
2021/06/03 20:15:36;;;;;;;;;2.00;2.00;;;;;22.58;51.85;101648.53;4918993;28;46132;-95
2021/06/03 20:18:02;;;;;;;;;3.00;3.00;;;;;22.52;51.47;101663.91;4906591;28;45448;-94
2021/06/03 20:20:29;;;;;;;;;2.67;2.67;;;;;22.51;52.08;101666.63;4908767;28;47428;-95
2021/06/03 20:22:54;;;;;;;;;4.00;2.33;;;;;22.48;52.16;101673.00;4914577;28;45756;-95
2021/06/03 20:25:23;;;;;;;;;2.00;2.00;;;;;22.43;52.15;101664.53;4918574;28;44834;-95
2021/06/03 20:27:50;;;;;;;;;2.00;2.00;;;;;22.39;51.67;101665.72;4903592;28;45552;-96
2021/06/03 20:30:18;;;;;;;;;2.33;1.33;;;;;22.37;51.87;101664.97;4908428;28;47528;-96
2021/06/03 20:32:45;;;;;;;;;3.00;3.00;;;;;22.34;52.63;101674.00;4919913;28;45276;-96
2021/06/03 20:35:12;;;;;;;;;4.00;3.00;;;;;22.26;52.93;101681.69;4920442;28;44788;-96
2021/06/03 20:37:42;;;;;;;;;2.33;2.00;;;;;22.22;53.02;101685.50;4919011;28;45271;-96
2021/06/03 20:40:09;;;;;;;;;4.00;2.00;;;;;22.18;53.63;101686.66;4917204;28;46223;-96
2021/06/03 20:42:35;;;;;;;;;3.00;3.00;;;;;22.17;53.13;101693.75;4898629;29;44926;-96
2021/06/03 20:45:02;;;;;;;;;3.67;3.00;;;;;22.09;53.12;101682.84;4900151;29;44702;-95
2021/06/03 20:47:28;;;;;;;;;3.33;3.33;;;;;22.06;54.03;101683.06;4902453;28;45040;-96
2021/06/03 20:49:53;;;;;;;;;2.00;2.00;;;;;22.02;53.83;101685.06;4902374;28;47128;-96
2021/06/03 20:52:19;;;;;;;;;4.00;4.00;;;;;21.95;54.35;101687.31;4902215;28;45383;-95
2021/06/03 20:54:45;;;;;;;;;4.00;3.00;;;;;21.90;54.62;101689.44;4903756;28;44794;-96
2021/06/03 20:57:10;;;;;;;;;4.33;3.67;;;;;21.87;54.49;101693.16;4906441;28;45326;-95
2021/06/03 20:59:36;;;;;;;;;3.33;3.33;;;;;21.81;54.66;101683.00;4903367;28;47121;-96
2021/06/03 21:02:02;;;;;;;;;3.00;3.00;;;;;21.77;54.99;101692.09;4898053;29;45332;-96
2021/06/03 21:04:27;;;;;;;;;4.67;3.67;;;;;21.73;55.44;101695.91;4903290;28;44721;-96
2021/06/03 21:06:52;;;;;;;;;4.00;4.00;;;;;21.67;55.64;101691.84;4919724;28;45424;-96
2021/06/03 21:09:18;;;;;;;;;4.00;4.00;;;;;21.62;55.91;101692.16;4903603;28;47238;-95
2021/06/03 21:11:44;;;;;;;;;4.33;4.33;;;;;21.58;56.01;101690.66;4903479;28;45430;-96
2021/06/03 21:14:11;;;;;;;;;4.00;4.00;;;;;21.60;55.46;101695.84;4902986;28;45324;-95
2021/06/03 21:16:36;;;;;;;;;4.33;3.00;;;;;21.58;56.06;101693.28;4903479;28;45301;-96
2021/06/03 21:19:02;;;;;;;;;2.67;2.67;;;;;21.53;56.09;101694.56;4902599;28;47579;-95
2021/06/03 21:21:28;;;;;;;;;4.67;3.00;;;;;21.48;56.15;101697.53;4903440;28;45079;-95
2021/06/03 21:23:54;;;;;;;;;4.00;3.67;;;;;21.38;56.65;101694.66;4899702;29;45345;-95
2021/06/03 21:26:20;;;;;;;;;6.00;3.67;;;;;21.34;56.48;101704.59;4902492;28;45435;-96
2021/06/03 21:28:46;;;;;;;;;5.67;2.67;;;;;21.27;57.06;101691.88;4902891;28;47537;-95
2021/06/03 21:31:13;;;;;;;;;4.00;4.00;;;;;21.21;57.25;101682.56;4904419;28;45508;-95
2021/06/03 21:33:38;;;;;;;;;4.00;4.00;;;;;21.20;57.26;101689.63;4906136;28;45264;-96
2021/06/03 21:36:05;;;;;;;;;3.00;3.00;;;;;21.12;57.18;101684.00;4906444;28;45332;-96
2021/06/03 21:38:31;;;;;;;;;4.00;4.00;;;;;21.09;57.31;101684.19;4906151;28;47401;-94
2021/06/03 21:40:57;;;;;;;;;4.67;3.00;;;;;21.02;57.51;101685.56;4905922;28;45482;-96
2021/06/03 21:43:23;;;;;;;;;5.00;4.33;;;;;20.96;57.63;101686.78;4906513;28;45422;-95
2021/06/03 21:45:48;;;;;;;;;2.33;2.00;;;;;20.95;57.54;101695.69;4910465;28;44905;-96
2021/06/03 21:48:14;;;;;;;;;4.00;4.00;;;;;20.87;57.74;101685.59;4931695;28;45161;-96
2021/06/03 21:50:40;;;;;;;;;3.33;3.00;;;;;20.85;58.04;101689.25;4906085;28;45007;-95
2021/06/03 21:53:05;;;;;;;;;3.33;3.33;;;;;20.81;57.62;101685.97;4906136;28;44990;-96
2021/06/03 21:55:32;;;;;;;;;4.00;4.00;;;;;20.75;57.92;101684.59;4906597;28;44836;-95
2021/06/03 21:57:58;;;;;;;;;3.00;3.00;;;;;20.74;57.96;101687.31;4905920;28;47370;-95
2021/06/03 22:00:45;;;;;;;;;3.67;3.00;;;;;20.68;58.46;101680.63;4906120;28;45403;-95
2021/06/03 22:03:13;;;;;;;;;2.67;2.67;;;;;20.67;58.64;101693.00;4906333;28;44781;-96
2021/06/03 22:05:42;;;;;;;;;3.33;3.00;;;;;20.70;58.35;101691.97;4905745;28;45324;-96
2021/06/03 22:08:07;;;;;;;;;4.00;4.00;;;;;20.69;58.46;101685.81;4905831;28;46413;-95
2021/06/03 22:10:33;;;;;;;;;3.67;3.67;;;;;20.67;58.26;101693.00;4906108;28;44838;-96
2021/06/03 22:13:01;;;;;;;;;4.67;3.33;;;;;20.67;58.55;101690.38;4905896;28;45369;-96
2021/06/03 22:15:26;;;;;;;;;2.00;2.00;;;;;20.70;58.35;101697.25;4905969;28;44857;-95
2021/06/03 22:17:53;;;;;;;;;2.67;2.67;;;;;20.66;58.26;101699.25;4905402;28;45608;-96
2021/06/03 22:20:23;;;;;;;;;3.67;3.67;;;;;20.62;58.18;101695.09;4921500;28;45296;-95
2021/06/03 22:22:48;;;;;;;;;4.33;4.33;;;;;20.53;58.42;101693.88;4921767;28;44784;-95
2021/06/03 22:25:23;;;;;;;;;3.00;3.00;;;;;20.52;58.76;101691.34;4921603;28;44859;-96
2021/06/03 22:27:51;;;;;;;;;4.33;4.00;;;;;20.43;58.92;101683.03;4904714;28;47382;-96
2021/06/03 22:30:17;;;;;;;;;4.00;4.00;;;;;20.42;58.92;101694.56;4905455;28;44942;-96
2021/06/03 22:32:43;;;;;;;;;3.33;3.33;;;;;20.45;58.75;101703.25;4905487;28;44745;-96
2021/06/03 22:35:13;;;;;;;;;3.00;3.00;;;;;20.36;59.05;101691.47;4921649;28;44853;-96
2021/06/03 22:37:40;;;;;;;;;3.25;3.25;;;;;20.31;59.05;101685.63;4905019;28;47381;-95
2021/06/03 22:40:09;;;;;;;;;2.75;2.75;;;;;20.32;58.90;101689.94;4905232;28;45349;-96
2021/06/03 22:42:35;;;;;;;;;3.50;3.50;;;;;20.26;59.26;101689.38;4904872;28;45244;-96
2021/06/03 22:45:01;;;;;;;;;2.33;2.33;;;;;20.25;59.20;101687.69;4905460;28;45336;-95
2021/06/03 22:47:31;;;;;;;;;2.50;2.50;;;;;20.26;58.99;101699.97;4904237;28;47477;-95
2021/06/03 22:49:57;;;;;;;;;3.25;3.25;;;;;20.25;59.63;101705.34;4921271;28;45034;-96
2021/06/03 22:52:25;;;;;;;;;3.00;3.00;;;;;20.18;59.59;101698.72;4905449;28;44826;-96
2021/06/03 22:54:51;;;;;;;;;3.67;3.67;;;;;20.18;59.51;101701.38;4905245;28;44818;-95
2021/06/03 22:57:17;;;;;;;;;4.67;4.00;;;;;20.14;59.01;101701.56;4904979;28;46911;-96
2021/06/03 22:59:45;;;;;;;;;4.00;4.00;;;;;20.07;59.55;101692.31;4917051;28;44879;-96
2021/06/03 23:02:12;;;;;;;;;4.67;3.33;;;;;20.04;59.50;101697.78;4924030;28;44818;-96
2021/06/03 23:04:40;;;;;;;;;3.67;3.67;;;;;20.03;59.70;101710.16;4924762;28;44928;-95
2021/06/03 23:07:06;;;;;;;;;3.33;3.33;;;;;19.98;59.35;101708.72;4923221;28;45678;-95
2021/06/03 23:09:33;;;;;;;;;5.00;4.25;;;;;19.91;59.69;101697.66;4933691;28;44859;-96
2021/06/03 23:12:02;;;;;;;;;4.75;4.75;;;;;19.88;60.34;101685.50;4904862;28;44825;-95
2021/06/03 23:14:31;;;;;;;;;3.00;3.00;;;;;19.89;60.41;101694.25;4905400;28;44933;-95
2021/06/03 23:16:58;;;;;;;;;4.00;4.00;;;;;19.83;60.71;101686.69;4905618;28;47633;-95
2021/06/03 23:19:24;;;;;;;;;6.67;6.00;;;;;19.84;60.81;101693.66;4905131;28;44947;-96
2021/06/03 23:21:52;;;;;;;;;8.00;8.00;;;;;19.84;60.57;101691.88;4901163;29;45350;-96
2021/06/03 23:24:18;;;;;;;;;7.00;6.50;;;;;19.82;60.48;101677.06;4886213;29;45654;-96
2021/06/03 23:26:46;;;;;;;;;7.25;5.75;;;;;19.77;61.06;101678.19;4903021;29;46200;-96
2021/06/03 23:29:13;;;;;;;;;8.00;7.67;;;;;19.76;60.90;101673.88;4901480;29;44809;-96
2021/06/03 23:31:41;;;;;;;;;8.50;8.50;;;;;19.76;61.13;101675.66;4901667;28;44914;-96
2021/06/03 23:34:07;;;;;;;;;10.75;9.00;;;;;19.74;61.17;101666.97;4924809;28;44897;-96
2021/06/03 23:36:34;;;;;;;;;9.50;8.75;;;;;19.73;60.89;101671.41;4923364;28;45637;-95
2021/06/03 23:39:00;;;;;;;;;9.50;9.50;;;;;19.76;60.85;101675.66;4923286;28;44798;-96
2021/06/03 23:41:25;;;;;;;;;7.75;7.75;;;;;19.70;61.34;101668.09;4918388;28;45436;-96
2021/06/03 23:43:51;;;;;;;;;11.75;10.50;;;;;19.70;61.29;101668.97;4904195;28;44777;-96
2021/06/03 23:46:16;;;;;;;;;10.25;8.25;;;;;19.69;60.84;101671.69;4903743;28;47141;-96
2021/06/03 23:48:44;;;;;;;;;9.50;9.25;;;;;19.70;61.13;101674.25;4904082;28;44773;-95
2021/06/03 23:51:15;;;;;;;;;11.00;9.25;;;;;19.70;61.04;101668.97;4905111;28;44817;-96
2021/06/03 23:53:40;;;;;;;;;10.00;8.25;;;;;19.71;61.09;101664.50;4905200;28;44904;-96
2021/06/03 23:56:05;;;;;;;;;9.75;8.25;;;;;19.69;61.27;101653.19;4909445;28;47255;-96
2021/06/03 23:58:37;;;;;;;;;9.50;7.50;;;;;19.72;61.06;101668.88;4920764;28;45224;-96
